Time;durP1;ratioP1;P1;durP2;ratioP2;P2;SDS_P1;SDS_P2;PMS_P1;PMS_P2;Temp;Humidity;BMP_temperature;BMP_pressure;BME280_temperature;BME280_humidity;BME280_pressure;Samples;Min_cycle;Max_cycle;Signal;HPM_P1;HPM_P2
2022/12/30 00:00:48;;;;;;;;;2.25;1.00;;;;;;;;5103788;27;63718;-78
2022/12/30 00:03:13;;;;;;;;;2.25;1.00;;;;;;;;5106114;27;61844;-78
2022/12/30 00:05:38;;;;;;;;;5.00;3.00;;;;;;;;5104260;27;62102;-78
2022/12/30 00:08:04;;;;;;;;;2.00;2.00;;;;;;;;5105178;27;61913;-78
2022/12/30 00:10:29;;;;;;;;;2.25;2.25;;;;;;;;5105283;27;61779;-78
2022/12/30 00:34:58;;;;;;;;;6.25;2.00;;;;;;;;5105453;27;61702;-78
2022/12/30 00:37:23;;;;;;;;;3.00;0.25;;;;;;;;5104000;27;61905;-78
2022/12/30 00:39:48;;;;;;;;;6.50;2.50;;;;;;;;5105726;27;62082;-78
2022/12/30 00:44:58;;;;;;;;;7.50;2.00;;;;;;;;5105423;27;62024;-78
2022/12/30 00:47:23;;;;;;;;;3.00;2.00;;;;;;;;5105083;27;62270;-78
2022/12/30 00:58:00;;;;;;;;;1.00;1.00;;;;;;;;5104812;27;61945;-77
2022/12/30 01:00:25;;;;;;;;;2.00;1.00;;;;;;;;5105303;27;61833;-78
2022/12/30 01:02:50;;;;;;;;;2.75;2.00;;;;;;;;5103937;27;62641;-78
2022/12/30 01:05:16;;;;;;;;;2.00;2.00;;;;;;;;5105189;27;61901;-78
2022/12/30 01:07:41;;;;;;;;;3.25;3.00;;;;;;;;5103856;27;62055;-78
2022/12/30 01:10:07;;;;;;;;;2.75;1.00;;;;;;;;5103924;27;61734;-78
2022/12/30 01:12:32;;;;;;;;;2.75;1.75;;;;;;;;5103706;27;62119;-78
2022/12/30 01:14:58;;;;;;;;;2.00;1.00;;;;;;;;5103320;27;62024;-78
2022/12/30 01:17:27;;;;;;;;;6.50;2.00;;;;;;;;5104561;27;61702;-78
2022/12/30 01:19:53;;;;;;;;;1.00;1.00;;;;;;;;5104862;27;62060;-78
2022/12/30 01:22:18;;;;;;;;;6.00;1.00;;;;;;;;5102643;27;64702;-78
2022/12/30 01:24:43;;;;;;;;;0.75;0.50;;;;;;;;5104697;27;61717;-78
2022/12/30 01:27:09;;;;;;;;;1.50;1.50;;;;;;;;5104523;27;61861;-78
2022/12/30 01:29:38;;;;;;;;;3.50;1.00;;;;;;;;5104791;27;61785;-78
2022/12/30 01:32:04;;;;;;;;;2.50;1.00;;;;;;;;5103897;27;62597;-78
2022/12/30 01:34:30;;;;;;;;;3.00;0.00;;;;;;;;5104065;27;61830;-77
2022/12/30 01:36:55;;;;;;;;;3.00;1.25;;;;;;;;5103009;27;62156;-78
2022/12/30 01:39:21;;;;;;;;;1.50;1.50;;;;;;;;5104688;27;61894;-78
2022/12/30 01:41:46;;;;;;;;;2.00;1.00;;;;;;;;5103360;27;62673;-77
2022/12/30 01:44:30;;;;;;;;;1.25;1.00;;;;;;;;5104409;27;62050;-78
2022/12/30 01:46:56;;;;;;;;;0.00;0.00;;;;;;;;5104066;27;61852;-78
2022/12/30 01:49:21;;;;;;;;;3.50;2.50;;;;;;;;5102894;27;62116;-78
2022/12/30 01:51:46;;;;;;;;;3.00;2.00;;;;;;;;5103304;27;61888;-78
2022/12/30 01:54:11;;;;;;;;;1.50;1.00;;;;;;;;5104165;27;61879;-78
2022/12/30 01:56:40;;;;;;;;;2.00;1.00;;;;;;;;5102607;27;62632;-77
2022/12/30 01:59:08;;;;;;;;;1.50;1.00;;;;;;;;5104445;27;61765;-78
2022/12/30 02:01:34;;;;;;;;;0.00;0.00;;;;;;;;5103315;27;63059;-78
2022/12/30 02:04:05;;;;;;;;;2.00;2.00;;;;;;;;5104282;27;61853;-78
2022/12/30 02:07:00;;;;;;;;;1.00;1.00;;;;;;;;5102468;27;61779;-78
2022/12/30 02:09:26;;;;;;;;;2.50;0.25;;;;;;;;5081195;28;61755;-78
2022/12/30 02:11:51;;;;;;;;;1.00;1.00;;;;;;;;5079835;28;62045;-78
2022/12/30 02:14:17;;;;;;;;;2.00;2.00;;;;;;;;5080660;28;61944;-77
2022/12/30 02:16:46;;;;;;;;;3.00;1.75;;;;;;;;5064199;28;61977;-78
2022/12/30 02:19:14;;;;;;;;;2.75;1.00;;;;;;;;5081046;28;61839;-78
2022/12/30 02:21:43;;;;;;;;;1.75;1.00;;;;;;;;5079852;28;61803;-77
2022/12/30 02:24:20;;;;;;;;;2.00;2.00;;;;;;;;5081003;28;61958;-78
2022/12/30 02:26:52;;;;;;;;;2.75;1.25;;;;;;;;5080409;28;61870;-78
2022/12/30 02:29:32;;;;;;;;;4.25;2.00;;;;;;;;5081014;28;61746;-78
2022/12/30 02:32:15;;;;;;;;;5.50;1.00;;;;;;;;5079915;28;62823;-78
2022/12/30 02:34:59;;;;;;;;;2.00;2.00;;;;;;;;5080745;28;61776;-78
2022/12/30 02:37:27;;;;;;;;;2.50;2.00;;;;;;;;5080593;28;61942;-78
2022/12/30 02:39:52;;;;;;;;;1.25;1.00;;;;;;;;5080662;28;62110;-78
2022/12/30 02:45:30;;;;;;;;;1.00;1.00;;;;;;;;5084329;27;62025;-78
2022/12/30 02:48:01;;;;;;;;;7.00;2.00;;;;;;;;5102079;27;61737;-78
2022/12/30 02:53:14;;;;;;;;;3.00;2.00;;;;;;;;5102578;27;61842;-78
2022/12/30 02:55:40;;;;;;;;;3.25;2.75;;;;;;;;5103097;27;61881;-78
2022/12/30 02:58:05;;;;;;;;;1.50;1.50;;;;;;;;5102949;27;62288;-77
2022/12/30 03:03:58;;;;;;;;;7.25;2.25;;;;;;;;5092947;27;62367;-78
2022/12/30 03:06:39;;;;;;;;;4.25;2.75;;;;;;;;5103100;27;61944;-78
2022/12/30 03:09:25;;;;;;;;;6.25;2.75;;;;;;;;5081897;27;62164;-78
2022/12/30 03:11:53;;;;;;;;;1.50;0.50;;;;;;;;5080999;28;61745;-78
2022/12/30 03:14:22;;;;;;;;;6.00;6.00;;;;;;;;5080606;28;63826;-78
2022/12/30 03:16:51;;;;;;;;;5.00;3.00;;;;;;;;5082593;28;61643;-78
2022/12/30 03:19:20;;;;;;;;;2.75;2.75;;;;;;;;5082583;28;61753;-78
2022/12/30 03:21:47;;;;;;;;;5.25;3.00;;;;;;;;5082618;28;61794;-78
2022/12/30 03:27:06;;;;;;;;;1.00;1.00;;;;;;;;5081799;28;62006;-78
2022/12/30 03:29:40;;;;;;;;;3.00;2.75;;;;;;;;5081158;28;61837;-78
2022/12/30 03:32:07;;;;;;;;;7.50;4.00;;;;;;;;5082398;28;62106;-77
2022/12/30 03:34:32;;;;;;;;;4.00;3.25;;;;;;;;5081897;28;62849;-77
2022/12/30 03:37:10;;;;;;;;;6.00;2.00;;;;;;;;5082263;28;61680;-78
2022/12/30 03:39:37;;;;;;;;;3.00;3.00;;;;;;;;5081071;28;61809;-78
2022/12/30 03:42:03;;;;;;;;;5.50;2.50;;;;;;;;5080273;28;62113;-78
2022/12/30 03:44:28;;;;;;;;;3.75;2.75;;;;;;;;5080375;28;62704;-78
2022/12/30 03:46:53;;;;;;;;;3.25;1.75;;;;;;;;5082303;28;61751;-78
2022/12/30 03:49:19;;;;;;;;;3.00;3.00;;;;;;;;5082106;28;61773;-78
2022/12/30 03:51:44;;;;;;;;;5.00;3.00;;;;;;;;5082230;28;61760;-77
2022/12/30 03:54:10;;;;;;;;;4.25;2.25;;;;;;;;5079995;28;63729;-78
2022/12/30 03:56:35;;;;;;;;;4.50;2.75;;;;;;;;5082324;28;61857;-78
2022/12/30 03:59:00;;;;;;;;;3.25;2.00;;;;;;;;5084088;28;61902;-78
2022/12/30 04:01:25;;;;;;;;;8.00;2.75;;;;;;;;5084232;28;61749;-78
2022/12/30 04:03:51;;;;;;;;;3.00;3.00;;;;;;;;5085088;28;61879;-78
2022/12/30 04:06:17;;;;;;;;;6.00;2.00;;;;;;;;5083763;28;61802;-78
2022/12/30 04:08:42;;;;;;;;;2.25;1.00;;;;;;;;5101013;27;61820;-78
2022/12/30 04:11:07;;;;;;;;;5.00;3.00;;;;;;;;5105719;27;61678;-78
2022/12/30 04:13:32;;;;;;;;;2.00;2.00;;;;;;;;5104864;27;61962;-77
2022/12/30 04:15:58;;;;;;;;;3.50;2.00;;;;;;;;5106043;27;61804;-77
2022/12/30 04:18:23;;;;;;;;;2.00;2.00;;;;;;;;5104189;27;61697;-77
2022/12/30 04:20:50;;;;;;;;;5.25;2.50;;;;;;;;5105785;27;61840;-78
2022/12/30 04:23:15;;;;;;;;;6.75;3.25;;;;;;;;5103605;27;63794;-78
2022/12/30 04:25:41;;;;;;;;;3.00;1.25;;;;;;;;5105357;27;61933;-77
2022/12/30 04:28:06;;;;;;;;;3.00;2.25;;;;;;;;5105188;27;61627;-78
2022/12/30 04:30:32;;;;;;;;;6.00;3.00;;;;;;;;5104461;27;62112;-77
2022/12/30 04:32:57;;;;;;;;;5.50;2.25;;;;;;;;5104632;27;62600;-78
2022/12/30 04:35:22;;;;;;;;;10.50;3.25;;;;;;;;5105310;27;61799;-78
2022/12/30 04:37:48;;;;;;;;;6.00;3.00;;;;;;;;5105728;27;61956;-77
2022/12/30 04:40:13;;;;;;;;;3.25;3.25;;;;;;;;5105272;27;61730;-78
2022/12/30 04:42:38;;;;;;;;;6.75;5.50;;;;;;;;5104289;27;61721;-78
2022/12/30 04:45:04;;;;;;;;;6.00;6.00;;;;;;;;5105326;27;61749;-78
2022/12/30 04:47:29;;;;;;;;;3.75;3.75;;;;;;;;5105407;27;61828;-78
2022/12/30 04:49:55;;;;;;;;;3.50;3.50;;;;;;;;5103791;27;61767;-78
2022/12/30 04:52:20;;;;;;;;;6.25;6.25;;;;;;;;5104233;27;62006;-78
2022/12/30 04:54:45;;;;;;;;;7.50;3.00;;;;;;;;5103501;27;61860;-78
2022/12/30 04:57:11;;;;;;;;;4.00;2.25;;;;;;;;5104663;27;61723;-78
2022/12/30 04:59:36;;;;;;;;;8.00;4.50;;;;;;;;5105379;27;61678;-78
2022/12/30 05:02:01;;;;;;;;;4.50;3.25;;;;;;;;5104166;27;62813;-78
2022/12/30 05:04:26;;;;;;;;;6.50;3.00;;;;;;;;5103560;27;61976;-78
2022/12/30 05:06:52;;;;;;;;;7.75;6.00;;;;;;;;5104070;27;61706;-78
2022/12/30 05:09:17;;;;;;;;;6.75;6.75;;;;;;;;5104133;27;61698;-78
2022/12/30 05:11:42;;;;;;;;;2.50;2.50;;;;;;;;5103716;27;62847;-78
2022/12/30 05:14:07;;;;;;;;;11.00;6.50;;;;;;;;5104510;27;61820;-77
2022/12/30 05:16:33;;;;;;;;;8.00;6.00;;;;;;;;5105039;27;61688;-78
2022/12/30 05:18:58;;;;;;;;;9.00;4.50;;;;;;;;5104772;27;61740;-78
2022/12/30 05:21:23;;;;;;;;;10.25;3.25;;;;;;;;5103848;27;61964;-77
2022/12/30 05:26:33;;;;;;;;;4.50;4.50;;;;;;;;5104171;27;61760;-77
2022/12/30 05:28:58;;;;;;;;;7.25;6.50;;;;;;;;5104931;27;62472;-78
2022/12/30 05:31:23;;;;;;;;;5.25;3.00;;;;;;;;5103612;27;61867;-78
2022/12/30 05:33:48;;;;;;;;;3.00;3.00;;;;;;;;5104717;27;61809;-78
2022/12/30 05:36:14;;;;;;;;;5.25;3.50;;;;;;;;5104479;27;61886;-78
2022/12/30 05:38:39;;;;;;;;;7.75;3.00;;;;;;;;5104509;27;61769;-78
2022/12/30 05:41:05;;;;;;;;;3.00;3.00;;;;;;;;5103942;27;61744;-78
2022/12/30 05:43:30;;;;;;;;;5.00;2.25;;;;;;;;5103861;27;61743;-77
2022/12/30 05:45:57;;;;;;;;;2.75;2.75;;;;;;;;5103128;27;61790;-78
2022/12/30 05:48:22;;;;;;;;;6.25;3.00;;;;;;;;5104408;27;61718;-78
2022/12/30 05:50:48;;;;;;;;;5.50;3.25;;;;;;;;5103446;27;62774;-78
2022/12/30 05:53:13;;;;;;;;;1.00;1.00;;;;;;;;5103985;27;61836;-78
2022/12/30 05:55:38;;;;;;;;;8.25;2.75;;;;;;;;5104452;27;61936;-78
2022/12/30 05:58:04;;;;;;;;;4.25;2.00;;;;;;;;5103763;27;61924;-78
2022/12/30 06:00:29;;;;;;;;;2.25;2.00;;;;;;;;5102152;27;63166;-77
2022/12/30 06:02:55;;;;;;;;;3.00;2.00;;;;;;;;5103937;27;61769;-78
2022/12/30 06:05:20;;;;;;;;;0.75;0.75;;;;;;;;5102782;27;61995;-78
2022/12/30 06:07:45;;;;;;;;;2.50;1.25;;;;;;;;5103183;27;61966;-78
2022/12/30 06:10:11;;;;;;;;;2.00;2.00;;;;;;;;5103302;27;62727;-78
2022/12/30 06:12:36;;;;;;;;;6.25;6.00;;;;;;;;5103555;27;61840;-78
2022/12/30 06:15:01;;;;;;;;;3.50;2.00;;;;;;;;5103992;27;61753;-78
2022/12/30 06:17:26;;;;;;;;;3.75;1.50;;;;;;;;5104049;27;61872;-77
2022/12/30 06:19:52;;;;;;;;;1.00;1.00;;;;;;;;5101688;27;64758;-78
2022/12/30 06:22:17;;;;;;;;;1.25;1.00;;;;;;;;5103266;27;61778;-78
2022/12/30 06:24:42;;;;;;;;;3.00;1.00;;;;;;;;5102481;27;61639;-78
2022/12/30 06:27:07;;;;;;;;;1.00;1.00;;;;;;;;5102190;27;62269;-78
2022/12/30 06:29:33;;;;;;;;;3.00;0.25;;;;;;;;5102987;27;62820;-78
2022/12/30 06:31:58;;;;;;;;;3.00;1.00;;;;;;;;5103650;27;61772;-78
2022/12/30 06:34:23;;;;;;;;;3.25;3.00;;;;;;;;5103398;27;61789;-78
2022/12/30 06:36:48;;;;;;;;;2.50;1.00;;;;;;;;5102029;27;62184;-78
2022/12/30 06:39:14;;;;;;;;;4.00;1.75;;;;;;;;5103039;27;61800;-78
2022/12/30 06:41:39;;;;;;;;;2.25;0.25;;;;;;;;5101616;27;61825;-78
2022/12/30 06:44:04;;;;;;;;;2.75;2.00;;;;;;;;5103742;27;61785;-77
2022/12/30 06:46:30;;;;;;;;;8.25;2.50;;;;;;;;5103528;27;61756;-78
2022/12/30 06:48:55;;;;;;;;;3.00;2.00;;;;;;;;5101165;27;64753;-77
2022/12/30 06:51:20;;;;;;;;;2.00;1.00;;;;;;;;5102952;27;61741;-77
2022/12/30 06:53:45;;;;;;;;;4.50;2.00;;;;;;;;5102022;27;61729;-78
2022/12/30 06:56:11;;;;;;;;;3.00;1.00;;;;;;;;5103345;27;61893;-78
2022/12/30 06:58:36;;;;;;;;;4.00;1.25;;;;;;;;5102379;27;61926;-78
2022/12/30 07:01:02;;;;;;;;;2.00;1.50;;;;;;;;5103283;27;61797;-78
2022/12/30 07:03:27;;;;;;;;;1.00;1.00;;;;;;;;5102991;27;61757;-78
2022/12/30 07:05:52;;;;;;;;;1.50;0.00;;;;;;;;5103290;27;61755;-78
2022/12/30 07:08:17;;;;;;;;;1.25;1.00;;;;;;;;5101493;27;61785;-77
2022/12/30 07:10:43;;;;;;;;;1.75;0.75;;;;;;;;5101495;27;61856;-78
2022/12/30 07:13:10;;;;;;;;;2.00;1.00;;;;;;;;5102699;27;61908;-78
2022/12/30 07:15:35;;;;;;;;;1.00;1.00;;;;;;;;5103160;27;61775;-78
2022/12/30 07:18:00;;;;;;;;;1.25;1.00;;;;;;;;5102495;27;61907;-78
2022/12/30 07:20:26;;;;;;;;;3.75;1.50;;;;;;;;5102343;27;62025;-78
2022/12/30 07:22:51;;;;;;;;;1.00;0.50;;;;;;;;5101328;27;61762;-78
2022/12/30 07:25:16;;;;;;;;;3.00;1.00;;;;;;;;5103353;27;61776;-78
2022/12/30 07:27:41;;;;;;;;;1.00;1.00;;;;;;;;5101793;27;61863;-78
2022/12/30 07:30:07;;;;;;;;;1.00;0.75;;;;;;;;5102999;27;61654;-78
2022/12/30 07:32:32;;;;;;;;;2.00;1.00;;;;;;;;5104747;27;61879;-78
2022/12/30 07:34:57;;;;;;;;;3.75;1.00;;;;;;;;5106510;27;61776;-78
2022/12/30 07:37:23;;;;;;;;;0.50;0.50;;;;;;;;5105784;27;61791;-77
2022/12/30 07:39:48;;;;;;;;;1.00;1.00;;;;;;;;5106446;27;61824;-78
2022/12/30 07:42:13;;;;;;;;;4.75;0.75;;;;;;;;5104613;27;61941;-78
2022/12/30 07:44:38;;;;;;;;;1.50;1.00;;;;;;;;5105199;27;61751;-78
2022/12/30 07:47:07;;;;;;;;;1.00;0.00;;;;;;;;5104390;27;63880;-77
2022/12/30 07:49:32;;;;;;;;;3.00;1.50;;;;;;;;5105882;27;62512;-78
2022/12/30 07:51:57;;;;;;;;;1.75;1.75;;;;;;;;5106014;27;62027;-77
2022/12/30 07:54:22;;;;;;;;;3.00;1.00;;;;;;;;5106551;27;61979;-78
2022/12/30 07:56:48;;;;;;;;;3.00;0.00;;;;;;;;5103311;27;63568;-78
2022/12/30 07:59:13;;;;;;;;;1.50;0.00;;;;;;;;5104739;27;61846;-77
2022/12/30 08:01:39;;;;;;;;;4.25;0.00;;;;;;;;5105939;27;61824;-78
2022/12/30 08:04:04;;;;;;;;;4.00;1.00;;;;;;;;5105948;27;61874;-78
2022/12/30 08:06:29;;;;;;;;;1.00;1.00;;;;;;;;5105387;27;63058;-77
2022/12/30 08:08:55;;;;;;;;;0.25;0.00;;;;;;;;5087181;27;61850;-77
2022/12/30 08:11:20;;;;;;;;;0.25;0.25;;;;;;;;5085418;28;61891;-77
2022/12/30 08:13:45;;;;;;;;;2.00;0.00;;;;;;;;5083647;28;61807;-78
2022/12/30 08:16:14;;;;;;;;;1.50;0.00;;;;;;;;5084808;28;61850;-77
2022/12/30 08:18:40;;;;;;;;;0.00;0.00;;;;;;;;5083433;28;61661;-77
2022/12/30 08:21:06;;;;;;;;;1.00;1.00;;;;;;;;5085330;27;61683;-78
2022/12/30 08:23:32;;;;;;;;;2.50;1.00;;;;;;;;5085438;28;61597;-77
2022/12/30 08:26:03;;;;;;;;;1.75;1.00;;;;;;;;5083288;28;63814;-77
2022/12/30 08:28:28;;;;;;;;;1.00;1.00;;;;;;;;5085069;28;61747;-77
2022/12/30 08:30:53;;;;;;;;;1.00;1.00;;;;;;;;5084966;28;61717;-77
2022/12/30 08:33:18;;;;;;;;;3.25;1.00;;;;;;;;5083853;28;61968;-77
2022/12/30 08:35:44;;;;;;;;;2.25;1.00;;;;;;;;5084377;28;61715;-77
2022/12/30 08:38:09;;;;;;;;;1.00;1.00;;;;;;;;5084928;28;61887;-77
2022/12/30 08:40:34;;;;;;;;;0.75;0.75;;;;;;;;5085227;28;61843;-77
2022/12/30 08:42:59;;;;;;;;;1.75;1.00;;;;;;;;5083892;28;61828;-77
2022/12/30 08:45:25;;;;;;;;;2.00;1.00;;;;;;;;5083681;28;61803;-77
2022/12/30 08:47:50;;;;;;;;;2.50;0.00;;;;;;;;5084633;28;61979;-77
2022/12/30 08:50:15;;;;;;;;;2.00;1.00;;;;;;;;5083351;28;61946;-77
2022/12/30 08:52:41;;;;;;;;;1.00;1.00;;;;;;;;5083205;28;61776;-77
2022/12/30 08:55:06;;;;;;;;;1.00;1.00;;;;;;;;5084289;28;61911;-76
2022/12/30 08:57:31;;;;;;;;;1.50;1.50;;;;;;;;5084189;28;61952;-77
2022/12/30 08:59:57;;;;;;;;;2.00;2.00;;;;;;;;5083106;28;61907;-77
2022/12/30 09:02:22;;;;;;;;;3.75;1.00;;;;;;;;5083309;28;61994;-77
2022/12/30 09:04:47;;;;;;;;;2.00;1.00;;;;;;;;5082574;28;63746;-77
2022/12/30 09:07:12;;;;;;;;;3.25;2.00;;;;;;;;5087518;27;61922;-77
2022/12/30 09:09:38;;;;;;;;;1.00;1.00;;;;;;;;5105134;27;61885;-77
2022/12/30 09:12:03;;;;;;;;;3.00;2.00;;;;;;;;5104847;27;61873;-76
2022/12/30 09:14:29;;;;;;;;;3.00;2.00;;;;;;;;5104165;27;61910;-76
2022/12/30 09:16:54;;;;;;;;;2.50;2.50;;;;;;;;5104691;27;62113;-77
2022/12/30 09:19:19;;;;;;;;;3.00;3.00;;;;;;;;5104968;27;61836;-76
2022/12/30 09:21:45;;;;;;;;;2.00;1.00;;;;;;;;5104766;27;61889;-77
2022/12/30 09:24:10;;;;;;;;;0.75;0.00;;;;;;;;5104265;27;61989;-77
2022/12/30 09:26:35;;;;;;;;;3.00;1.00;;;;;;;;5102888;27;61886;-77
2022/12/30 09:29:01;;;;;;;;;1.75;1.50;;;;;;;;5104193;27;62188;-77
2022/12/30 09:31:26;;;;;;;;;1.00;1.00;;;;;;;;5103386;27;61888;-76
2022/12/30 09:33:52;;;;;;;;;1.00;0.00;;;;;;;;5102393;27;63775;-77
2022/12/30 09:36:18;;;;;;;;;0.00;0.00;;;;;;;;5103350;27;61694;-77
2022/12/30 09:38:43;;;;;;;;;2.75;1.00;;;;;;;;5104681;27;61940;-77
2022/12/30 09:41:09;;;;;;;;;1.00;1.00;;;;;;;;5103211;27;62070;-77
2022/12/30 09:43:53;;;;;;;;;0.00;0.00;;;;;;;;5101976;27;63479;-77
2022/12/30 09:46:24;;;;;;;;;0.00;0.00;;;;;;;;5104497;27;61705;-77
2022/12/30 09:48:54;;;;;;;;;1.00;1.00;;;;;;;;5104202;27;61823;-77
2022/12/30 09:51:23;;;;;;;;;1.00;1.00;;;;;;;;5104735;27;61784;-77
2022/12/30 09:53:56;;;;;;;;;1.00;1.00;;;;;;;;5103541;27;63052;-77
2022/12/30 09:56:27;;;;;;;;;1.00;1.00;;;;;;;;5103980;27;61681;-77
2022/12/30 09:58:54;;;;;;;;;2.00;1.00;;;;;;;;5102393;27;61802;-77
2022/12/30 10:01:24;;;;;;;;;1.75;1.00;;;;;;;;5104464;27;61765;-77
2022/12/30 10:03:57;;;;;;;;;0.50;0.50;;;;;;;;5103629;27;61708;-77
2022/12/30 10:06:28;;;;;;;;;1.50;0.50;;;;;;;;5102720;27;61836;-77
2022/12/30 10:09:02;;;;;;;;;0.00;0.00;;;;;;;;5103104;27;61768;-76
2022/12/30 10:11:46;;;;;;;;;1.00;1.00;;;;;;;;5102547;27;61800;-77
2022/12/30 10:14:11;;;;;;;;;0.25;0.25;;;;;;;;5103022;27;61712;-77
2022/12/30 10:16:51;;;;;;;;;0.00;0.00;;;;;;;;5104101;27;62200;-76
2022/12/30 10:19:39;;;;;;;;;0.00;0.00;;;;;;;;5104007;27;61820;-77
2022/12/30 10:22:10;;;;;;;;;0.25;0.25;;;;;;;;5096592;27;62220;-77
2022/12/30 10:24:35;;;;;;;;;1.00;0.00;;;;;;;;5101935;27;63795;-77
2022/12/30 10:27:06;;;;;;;;;3.00;1.00;;;;;;;;5101983;27;62018;-77
2022/12/30 10:29:35;;;;;;;;;0.00;0.00;;;;;;;;5103937;27;61867;-77
2022/12/30 10:32:07;;;;;;;;;0.25;0.00;;;;;;;;5102601;27;62029;-77
2022/12/30 10:34:33;;;;;;;;;0.00;0.00;;;;;;;;5103410;27;61901;-77
2022/12/30 10:37:10;;;;;;;;;0.25;0.00;;;;;;;;5103477;27;61779;-77
2022/12/30 10:39:38;;;;;;;;;1.00;0.00;;;;;;;;5103772;27;62028;-77
2022/12/30 10:42:15;;;;;;;;;0.00;0.00;;;;;;;;5103178;27;61814;-77
2022/12/30 10:44:40;;;;;;;;;0.00;0.00;;;;;;;;5103151;27;62727;-77
2022/12/30 10:47:12;;;;;;;;;0.00;0.00;;;;;;;;5103248;27;61938;-77
2022/12/30 10:49:39;;;;;;;;;0.75;0.00;;;;;;;;5103394;27;61951;-77
2022/12/30 10:52:08;;;;;;;;;0.00;0.00;;;;;;;;5101965;27;62138;-77
2022/12/30 10:54:35;;;;;;;;;1.00;1.00;;;;;;;;5102995;27;61766;-77
2022/12/30 10:57:01;;;;;;;;;0.25;0.00;;;;;;;;5103114;27;61821;-77
2022/12/30 10:59:27;;;;;;;;;0.00;0.00;;;;;;;;5103366;27;61616;-77
2022/12/30 11:01:58;;;;;;;;;0.00;0.00;;;;;;;;5103632;27;61881;-77
2022/12/30 11:04:40;;;;;;;;;0.25;0.25;;;;;;;;5102729;27;62047;-77
2022/12/30 11:07:08;;;;;;;;;0.00;0.00;;;;;;;;5103521;27;61686;-77
2022/12/30 11:09:33;;;;;;;;;0.00;0.00;;;;;;;;5106962;27;61757;-77
2022/12/30 11:14:44;;;;;;;;;0.00;0.00;;;;;;;;5106236;27;62415;-77
2022/12/30 11:17:15;;;;;;;;;0.00;0.00;;;;;;;;5106634;27;61781;-77
2022/12/30 11:19:42;;;;;;;;;0.00;0.00;;;;;;;;5106618;27;61954;-77
2022/12/30 11:22:07;;;;;;;;;0.00;0.00;;;;;;;;5106689;27;61773;-77
2022/12/30 11:24:32;;;;;;;;;1.00;1.00;;;;;;;;5104807;27;63451;-77
2022/12/30 11:26:58;;;;;;;;;0.00;0.00;;;;;;;;5104610;27;61987;-77
2022/12/30 11:29:26;;;;;;;;;0.50;0.00;;;;;;;;5106748;27;62181;-77
2022/12/30 11:31:53;;;;;;;;;0.00;0.00;;;;;;;;5106858;27;61826;-77
2022/12/30 11:34:28;;;;;;;;;0.00;0.00;;;;;;;;5104218;27;63646;-77
2022/12/30 11:36:53;;;;;;;;;1.50;0.00;;;;;;;;5106174;27;61769;-77
2022/12/30 11:39:21;;;;;;;;;0.00;0.00;;;;;;;;5106715;27;61749;-77
2022/12/30 11:41:50;;;;;;;;;0.50;0.00;;;;;;;;5104993;27;61863;-77
2022/12/30 11:44:20;;;;;;;;;0.00;0.00;;;;;;;;5105568;27;62082;-77
2022/12/30 11:46:47;;;;;;;;;2.75;0.00;;;;;;;;5106130;27;61730;-77
2022/12/30 11:49:18;;;;;;;;;0.00;0.00;;;;;;;;5106224;27;61714;-77
2022/12/30 11:51:45;;;;;;;;;0.00;0.00;;;;;;;;5105001;27;61995;-77
2022/12/30 11:54:11;;;;;;;;;0.00;0.00;;;;;;;;5103861;27;64987;-77
2022/12/30 11:56:37;;;;;;;;;0.00;0.00;;;;;;;;5106347;27;61847;-77
2022/12/30 11:59:13;;;;;;;;;1.00;0.00;;;;;;;;5105872;27;61885;-77
2022/12/30 12:01:43;;;;;;;;;0.50;0.00;;;;;;;;5106419;27;61784;-77
2022/12/30 12:04:28;;;;;;;;;0.00;0.00;;;;;;;;5105415;27;61859;-77
2022/12/30 12:06:53;;;;;;;;;0.00;0.00;;;;;;;;5104943;27;61840;-77
2022/12/30 12:09:19;;;;;;;;;0.00;0.00;;;;;;;;5105946;27;61883;-78
2022/12/30 12:11:46;;;;;;;;;0.00;0.00;;;;;;;;5105734;27;61752;-77
2022/12/30 12:14:17;;;;;;;;;0.50;0.00;;;;;;;;5105057;27;61917;-77
2022/12/30 12:16:52;;;;;;;;;0.00;0.00;;;;;;;;5105824;27;61927;-77
2022/12/30 12:19:36;;;;;;;;;1.75;0.00;;;;;;;;5104960;27;61834;-77
2022/12/30 12:22:04;;;;;;;;;2.00;1.00;;;;;;;;5106096;27;61728;-77
2022/12/30 12:24:34;;;;;;;;;0.00;0.00;;;;;;;;5104937;27;63582;-77
2022/12/30 12:27:13;;;;;;;;;0.75;0.75;;;;;;;;5105176;27;61807;-77
2022/12/30 12:29:39;;;;;;;;;0.00;0.00;;;;;;;;5105750;27;61810;-77
2022/12/30 12:32:23;;;;;;;;;0.00;0.00;;;;;;;;5105958;27;61872;-77
2022/12/30 12:34:57;;;;;;;;;0.00;0.00;;;;;;;;5103676;27;63994;-77
2022/12/30 12:37:41;;;;;;;;;0.00;0.00;;;;;;;;5105018;27;61630;-77
2022/12/30 12:40:12;;;;;;;;;0.00;0.00;;;;;;;;5105592;27;61642;-77
2022/12/30 12:42:37;;;;;;;;;0.00;0.00;;;;;;;;5105178;27;61698;-78
2022/12/30 12:45:06;;;;;;;;;0.00;0.00;;;;;;;;5104979;27;62724;-77
2022/12/30 12:47:49;;;;;;;;;0.00;0.00;;;;;;;;5105227;27;62029;-78
2022/12/30 12:50:28;;;;;;;;;2.00;0.00;;;;;;;;5105259;27;61879;-78
2022/12/30 12:53:06;;;;;;;;;0.00;0.00;;;;;;;;5105152;27;61916;-77
2022/12/30 12:55:41;;;;;;;;;0.00;0.00;;;;;;;;5104651;27;62862;-78
2022/12/30 12:58:06;;;;;;;;;0.00;0.00;;;;;;;;5105087;27;61729;-78
2022/12/30 13:00:48;;;;;;;;;0.25;0.00;;;;;;;;5105331;27;61993;-78
2022/12/30 13:03:14;;;;;;;;;0.00;0.00;;;;;;;;5105212;27;62138;-78
2022/12/30 13:05:51;;;;;;;;;0.00;0.00;;;;;;;;5103124;27;63617;-78
2022/12/30 13:08:34;;;;;;;;;0.00;0.00;;;;;;;;5103854;27;61726;-78
2022/12/30 13:11:18;;;;;;;;;1.00;0.00;;;;;;;;5104985;27;61995;-78
2022/12/30 13:13:46;;;;;;;;;0.00;0.00;;;;;;;;5104528;27;61698;-78
2022/12/30 13:16:13;;;;;;;;;0.00;0.00;;;;;;;;5104376;27;61841;-77
2022/12/30 13:18:41;;;;;;;;;0.00;0.00;;;;;;;;5104619;27;61686;-77
2022/12/30 13:21:09;;;;;;;;;0.00;0.00;;;;;;;;5103571;27;61709;-77
2022/12/30 13:23:40;;;;;;;;;0.00;0.00;;;;;;;;5103178;27;61868;-78
2022/12/30 13:26:06;;;;;;;;;0.00;0.00;;;;;;;;5104283;27;62849;-78
2022/12/30 13:28:32;;;;;;;;;0.00;0.00;;;;;;;;5104360;27;61745;-78
2022/12/30 13:31:13;;;;;;;;;0.00;0.00;;;;;;;;5104087;27;61943;-78
2022/12/30 13:33:52;;;;;;;;;0.00;0.00;;;;;;;;5104387;27;61716;-78
2022/12/30 13:36:21;;;;;;;;;0.00;0.00;;;;;;;;5103846;27;61866;-78
2022/12/30 13:38:52;;;;;;;;;0.00;0.00;;;;;;;;5104534;27;62009;-78
2022/12/30 13:41:25;;;;;;;;;0.00;0.00;;;;;;;;5103329;27;62406;-78
2022/12/30 13:43:55;;;;;;;;;0.00;0.00;;;;;;;;5104412;27;61761;-78
2022/12/30 13:46:22;;;;;;;;;0.00;0.00;;;;;;;;5104006;27;61814;-78
2022/12/30 13:48:52;;;;;;;;;1.00;0.00;;;;;;;;5104062;27;61769;-77
2022/12/30 13:51:20;;;;;;;;;0.50;0.00;;;;;;;;5104373;27;62218;-78
2022/12/30 13:53:46;;;;;;;;;0.00;0.00;;;;;;;;5102820;27;61878;-78
2022/12/30 13:56:20;;;;;;;;;0.00;0.00;;;;;;;;5102415;27;63581;-78
2022/12/30 13:58:48;;;;;;;;;0.00;0.00;;;;;;;;5103713;27;62064;-78
2022/12/30 14:01:19;;;;;;;;;0.00;0.00;;;;;;;;5104427;27;61913;-78
2022/12/30 14:03:48;;;;;;;;;2.25;0.00;;;;;;;;5103987;27;61800;-78
2022/12/30 14:06:16;;;;;;;;;0.00;0.00;;;;;;;;5101960;27;63879;-78
2022/12/30 14:08:45;;;;;;;;;0.00;0.00;;;;;;;;5103033;27;61916;-78
2022/12/30 14:11:16;;;;;;;;;0.00;0.00;;;;;;;;5103982;27;61699;-78
2022/12/30 14:13:43;;;;;;;;;0.00;0.00;;;;;;;;5103460;27;61781;-78
2022/12/30 14:16:08;;;;;;;;;0.00;0.00;;;;;;;;5102073;27;63700;-78
2022/12/30 14:18:37;;;;;;;;;1.00;1.00;;;;;;;;5102495;27;61903;-77
2022/12/30 14:21:03;;;;;;;;;3.25;1.00;;;;;;;;5103792;27;61975;-78
2022/12/30 14:23:40;;;;;;;;;0.00;0.00;;;;;;;;5103814;27;61874;-77
2022/12/30 14:26:18;;;;;;;;;0.00;0.00;;;;;;;;5101969;27;63812;-78
2022/12/30 14:29:04;;;;;;;;;1.00;0.00;;;;;;;;5103046;27;62001;-78
2022/12/30 14:31:34;;;;;;;;;0.00;0.00;;;;;;;;5103401;27;61966;-78
2022/12/30 14:34:01;;;;;;;;;0.00;0.00;;;;;;;;5103468;27;61870;-78
2022/12/30 14:36:29;;;;;;;;;0.00;0.00;;;;;;;;5101759;27;63638;-78
2022/12/30 14:38:57;;;;;;;;;0.00;0.00;;;;;;;;5103384;27;61751;-78
2022/12/30 14:41:24;;;;;;;;;0.00;0.00;;;;;;;;5102680;27;61887;-78
2022/12/30 14:43:50;;;;;;;;;0.00;0.00;;;;;;;;5101741;27;62992;-78
2022/12/30 14:46:30;;;;;;;;;1.00;0.00;;;;;;;;5103099;27;62606;-78
2022/12/30 14:49:16;;;;;;;;;0.00;0.00;;;;;;;;5102948;27;61801;-78
2022/12/30 14:51:44;;;;;;;;;0.00;0.00;;;;;;;;5102921;27;61974;-78
2022/12/30 14:54:20;;;;;;;;;0.00;0.00;;;;;;;;5103445;27;61753;-78
2022/12/30 14:56:54;;;;;;;;;0.50;0.00;;;;;;;;5101404;27;63963;-77
2022/12/30 14:59:21;;;;;;;;;0.00;0.00;;;;;;;;5103159;27;61741;-78
2022/12/30 15:02:08;;;;;;;;;1.00;0.00;;;;;;;;5103248;27;61655;-78
2022/12/30 15:04:34;;;;;;;;;0.00;0.00;;;;;;;;5103283;27;61847;-78
2022/12/30 15:06:59;;;;;;;;;0.00;0.00;;;;;;;;5100238;27;64947;-77
2022/12/30 15:09:26;;;;;;;;;0.00;0.00;;;;;;;;5103217;27;61784;-78
2022/12/30 15:11:54;;;;;;;;;0.00;0.00;;;;;;;;5101836;27;61817;-78
2022/12/30 15:14:19;;;;;;;;;0.00;0.00;;;;;;;;5102957;27;61959;-78
2022/12/30 15:16:45;;;;;;;;;0.00;0.00;;;;;;;;5101230;27;64947;-78
2022/12/30 15:19:24;;;;;;;;;0.00;0.00;;;;;;;;5102825;27;61886;-78
2022/12/30 15:21:49;;;;;;;;;0.00;0.00;;;;;;;;5103212;27;61824;-78
2022/12/30 15:24:16;;;;;;;;;0.00;0.00;;;;;;;;5102982;27;61696;-78
2022/12/30 15:26:42;;;;;;;;;0.00;0.00;;;;;;;;5102507;27;61839;-78
2022/12/30 15:29:25;;;;;;;;;0.00;0.00;;;;;;;;5102593;27;61772;-78
2022/12/30 15:31:55;;;;;;;;;0.75;0.00;;;;;;;;5102713;27;61907;-78
2022/12/30 15:34:23;;;;;;;;;0.75;0.00;;;;;;;;5103026;27;62027;-78
2022/12/30 15:36:48;;;;;;;;;0.00;0.00;;;;;;;;5100903;27;63820;-77
2022/12/30 15:39:16;;;;;;;;;0.00;0.00;;;;;;;;5102653;27;61938;-78